Time;durP1;ratioP1;P1;durP2;ratioP2;P2;SDS_P1;SDS_P2;PMS_P1;PMS_P2;Temp;Humidity;BMP_temperature;BMP_pressure;BME280_temperature;BME280_humidity;BME280_pressure;Samples;Min_cycle;Max_cycle;Signal;HPM_P1;HPM_P2
2022/08/31 00:05:38;;;;;;;7.45;2.00;;;;;;;;;;5034257;28;20077;-74
2022/08/31 00:08:05;;;;;;;6.63;2.30;;;;;;;;;;5034282;28;20049;-74
2022/08/31 00:10:31;;;;;;;10.25;2.22;;;;;;;;;;5033739;28;20383;-74
2022/08/31 00:13:02;;;;;;;3.20;1.95;;;;;;;;;;5034161;28;20099;-74
2022/08/31 00:15:29;;;;;;;5.43;2.60;;;;;;;;;;5033793;28;20569;-74
2022/08/31 00:17:55;;;;;;;4.43;2.70;;;;;;;;;;5034012;28;20053;-74
2022/08/31 00:20:22;;;;;;;5.85;2.55;;;;;;;;;;5034253;28;20095;-74
2022/08/31 00:23:03;;;;;;;7.47;2.17;;;;;;;;;;5032569;28;20464;-74
2022/08/31 00:25:30;;;;;;;3.55;2.20;;;;;;;;;;5033531;28;20046;-74
2022/08/31 00:27:57;;;;;;;4.03;1.80;;;;;;;;;;5033799;28;20099;-74
2022/08/31 00:30:23;;;;;;;5.05;2.20;;;;;;;;;;5033777;28;20099;-74
2022/08/31 00:32:50;;;;;;;4.63;2.15;;;;;;;;;;5033761;28;20058;-74
2022/08/31 00:35:17;;;;;;;4.82;1.92;;;;;;;;;;5033415;28;20481;-74
2022/08/31 00:37:44;;;;;;;3.00;2.05;;;;;;;;;;5033773;28;20092;-74
2022/08/31 00:40:10;;;;;;;3.97;2.17;;;;;;;;;;5033367;28;20069;-74
2022/08/31 00:42:37;;;;;;;7.65;2.50;;;;;;;;;;5033378;28;20498;-74
2022/08/31 00:45:04;;;;;;;4.47;2.15;;;;;;;;;;5033099;28;20509;-74
2022/08/31 00:47:30;;;;;;;4.22;2.05;;;;;;;;;;5033198;28;20502;-74
2022/08/31 00:49:58;;;;;;;3.35;2.00;;;;;;;;;;5033164;28;20050;-74
2022/08/31 00:52:28;;;;;;;5.88;2.00;;;;;;;;;;5033070;28;20560;-74
2022/08/31 00:55:00;;;;;;;3.83;1.90;;;;;;;;;;5033390;28;20049;-74
2022/08/31 00:57:29;;;;;;;4.63;1.90;;;;;;;;;;5032954;28;20552;-74
2022/08/31 01:00:01;;;;;;;4.43;2.20;;;;;;;;;;5033089;28;20111;-74
2022/08/31 01:02:30;;;;;;;6.63;2.38;;;;;;;;;;5033079;28;20053;-74
2022/08/31 01:04:56;;;;;;;3.75;2.20;;;;;;;;;;5032787;28;20049;-74
2022/08/31 01:07:23;;;;;;;4.47;2.03;;;;;;;;;;5032717;28;20083;-74
2022/08/31 01:09:50;;;;;;;3.88;2.40;;;;;;;;;;5033127;28;20573;-74
2022/08/31 01:12:21;;;;;;;5.82;2.28;;;;;;;;;;5032977;28;20053;-74
2022/08/31 01:14:48;;;;;;;7.38;2.65;;;;;;;;;;5032761;28;20049;-74
2022/08/31 01:17:16;;;;;;;3.00;2.00;;;;;;;;;;5032823;28;20084;-74
2022/08/31 01:19:42;;;;;;;3.13;2.05;;;;;;;;;;5032874;28;20099;-74
2022/08/31 01:22:12;;;;;;;6.28;1.80;;;;;;;;;;5032644;28;20065;-74
2022/08/31 01:24:40;;;;;;;3.40;1.90;;;;;;;;;;5019049;28;20045;-74
2022/08/31 01:27:07;;;;;;;3.95;2.08;;;;;;;;;;5032518;28;20111;-74
2022/08/31 01:29:34;;;;;;;4.18;2.38;;;;;;;;;;5032308;28;20050;-74
2022/08/31 01:32:01;;;;;;;6.88;2.30;;;;;;;;;;5032592;28;20049;-74
2022/08/31 01:34:27;;;;;;;6.90;2.30;;;;;;;;;;5032364;28;20489;-74
2022/08/31 01:36:54;;;;;;;3.58;2.22;;;;;;;;;;5032701;28;20096;-74
2022/08/31 01:39:20;;;;;;;4.47;2.10;;;;;;;;;;5032505;28;20123;-74
2022/08/31 01:41:47;;;;;;;3.45;2.10;;;;;;;;;;5032470;28;20053;-74
2022/08/31 01:44:15;;;;;;;4.88;2.35;;;;;;;;;;5032557;28;20045;-74
2022/08/31 01:46:42;;;;;;;7.90;2.70;;;;;;;;;;5031941;28;20489;-74
2022/08/31 01:49:09;;;;;;;8.63;2.50;;;;;;;;;;5032148;28;20056;-74
2022/08/31 01:51:35;;;;;;;3.30;2.00;;;;;;;;;;5032392;28;20045;-74
2022/08/31 01:54:02;;;;;;;6.47;2.53;;;;;;;;;;5032093;28;20561;-74
2022/08/31 01:56:30;;;;;;;5.73;2.67;;;;;;;;;;5030769;28;20053;-74
2022/08/31 01:58:57;;;;;;;4.47;2.38;;;;;;;;;;5032409;28;20053;-74
2022/08/31 02:01:25;;;;;;;6.35;2.42;;;;;;;;;;5032196;28;20469;-74
2022/08/31 02:04:00;;;;;;;3.75;2.45;;;;;;;;;;5032084;28;20085;-74
2022/08/31 02:06:27;;;;;;;8.68;2.72;;;;;;;;;;5031926;28;20088;-74
2022/08/31 02:08:54;;;;;;;6.20;2.67;;;;;;;;;;5031783;28;20053;-74
2022/08/31 02:11:20;;;;;;;6.65;2.20;;;;;;;;;;5030837;28;20077;-74
2022/08/31 02:13:47;;;;;;;3.85;2.40;;;;;;;;;;5031030;28;20128;-74
2022/08/31 02:16:13;;;;;;;4.10;1.92;;;;;;;;;;5031956;28;20084;-74
2022/08/31 02:18:40;;;;;;;5.18;2.97;;;;;;;;;;5031849;28;20053;-74
2022/08/31 02:21:06;;;;;;;8.30;2.40;;;;;;;;;;5031743;28;20045;-74
2022/08/31 02:23:33;;;;;;;7.47;2.70;;;;;;;;;;5031949;28;20387;-74
2022/08/31 02:25:59;;;;;;;3.30;2.50;;;;;;;;;;5031914;28;20053;-74
2022/08/31 02:28:26;;;;;;;6.30;2.47;;;;;;;;;;5031737;28;20046;-74
2022/08/31 02:30:52;;;;;;;5.40;2.15;;;;;;;;;;5031683;28;20504;-74
2022/08/31 02:33:19;;;;;;;4.95;2.83;;;;;;;;;;5031487;28;20049;-74
2022/08/31 02:35:45;;;;;;;5.13;2.63;;;;;;;;;;5031886;28;20128;-74
2022/08/31 02:38:17;;;;;;;3.75;2.53;;;;;;;;;;5031789;28;20410;-74
2022/08/31 02:40:44;;;;;;;5.72;2.70;;;;;;;;;;5031735;28;20091;-74
2022/08/31 02:43:11;;;;;;;4.68;2.08;;;;;;;;;;5031716;28;20056;-74
2022/08/31 02:45:49;;;;;;;2.72;2.25;;;;;;;;;;5031818;28;20050;-74
2022/08/31 02:48:19;;;;;;;4.15;2.28;;;;;;;;;;5031645;28;20406;-74
2022/08/31 02:50:46;;;;;;;5.85;2.85;;;;;;;;;;5031533;28;20402;-74
2022/08/31 02:53:13;;;;;;;5.65;2.78;;;;;;;;;;5031624;28;20049;-74
2022/08/31 02:55:41;;;;;;;6.63;2.40;;;;;;;;;;5031290;28;20042;-74
2022/08/31 02:58:08;;;;;;;6.55;2.33;;;;;;;;;;5031603;28;20131;-74
2022/08/31 03:00:36;;;;;;;3.92;2.70;;;;;;;;;;5031524;28;20076;-74
2022/08/31 03:03:02;;;;;;;4.05;2.50;;;;;;;;;;5031268;28;20096;-74
2022/08/31 03:05:29;;;;;;;6.75;2.42;;;;;;;;;;5031429;28;20073;-74
2022/08/31 03:07:56;;;;;;;6.45;2.40;;;;;;;;;;5031297;28;20075;-74
2022/08/31 03:10:23;;;;;;;5.17;2.33;;;;;;;;;;5031077;28;20493;-74
2022/08/31 03:12:50;;;;;;;5.35;2.60;;;;;;;;;;5030544;28;20099;-74
2022/08/31 03:15:18;;;;;;;6.47;2.78;;;;;;;;;;5031302;28;20076;-74
2022/08/31 03:17:44;;;;;;;3.55;2.40;;;;;;;;;;5030265;28;20111;-74
2022/08/31 03:20:12;;;;;;;3.83;2.67;;;;;;;;;;5031008;28;20065;-74
2022/08/31 03:22:39;;;;;;;5.10;2.30;;;;;;;;;;5030963;28;20554;-74
2022/08/31 03:25:11;;;;;;;6.93;2.95;;;;;;;;;;5032171;28;20580;-74
2022/08/31 03:27:37;;;;;;;6.43;2.92;;;;;;;;;;5034747;28;20049;-73
2022/08/31 03:30:06;;;;;;;6.80;2.50;;;;;;;;;;5033503;28;20077;-74
2022/08/31 03:32:32;;;;;;;6.43;2.83;;;;;;;;;;5035077;28;20073;-74
2022/08/31 03:34:59;;;;;;;5.15;3.05;;;;;;;;;;5034580;28;20123;-74
2022/08/31 03:37:26;;;;;;;4.28;2.60;;;;;;;;;;5035140;28;20085;-74
2022/08/31 03:39:52;;;;;;;6.13;2.80;;;;;;;;;;5034786;28;20073;-74
2022/08/31 03:42:19;;;;;;;4.75;2.85;;;;;;;;;;5034640;28;20184;-74
2022/08/31 03:44:46;;;;;;;3.53;2.67;;;;;;;;;;5034405;28;20057;-74
2022/08/31 03:47:13;;;;;;;5.85;2.50;;;;;;;;;;5034424;28;20134;-74
2022/08/31 03:49:40;;;;;;;5.60;3.22;;;;;;;;;;5034459;28;20099;-74
2022/08/31 03:52:07;;;;;;;4.40;2.60;;;;;;;;;;5034267;28;20077;-74
2022/08/31 03:54:34;;;;;;;6.57;3.17;;;;;;;;;;5034221;28;20527;-74
2022/08/31 03:57:01;;;;;;;5.18;3.22;;;;;;;;;;5034111;28;20084;-74
2022/08/31 03:59:27;;;;;;;6.60;2.80;;;;;;;;;;5034456;28;20112;-74
2022/08/31 04:01:53;;;;;;;6.78;2.63;;;;;;;;;;5033919;28;20052;-74
2022/08/31 04:04:20;;;;;;;7.55;3.03;;;;;;;;;;5034039;28;20076;-74
2022/08/31 04:06:46;;;;;;;3.50;2.47;;;;;;;;;;5033880;28;20556;-74
2022/08/31 04:09:13;;;;;;;3.88;2.47;;;;;;;;;;5032898;28;20045;-74
2022/08/31 04:11:40;;;;;;;5.10;2.78;;;;;;;;;;5034197;28;20077;-74
2022/08/31 04:14:11;;;;;;;5.93;2.42;;;;;;;;;;5033971;28;20101;-74
2022/08/31 04:16:42;;;;;;;9.75;2.72;;;;;;;;;;5033790;28;20057;-74
2022/08/31 04:19:10;;;;;;;5.22;2.78;;;;;;;;;;5033675;28;20100;-74
2022/08/31 04:21:37;;;;;;;5.35;2.88;;;;;;;;;;5033963;28;20123;-74
2022/08/31 04:24:06;;;;;;;5.28;2.83;;;;;;;;;;5033771;28;20072;-74
2022/08/31 04:26:34;;;;;;;6.25;3.17;;;;;;;;;;5033625;28;20551;-74
2022/08/31 04:29:03;;;;;;;4.70;2.70;;;;;;;;;;5032273;28;20505;-74
2022/08/31 04:31:29;;;;;;;4.57;2.17;;;;;;;;;;5033822;28;20103;-74
2022/08/31 04:33:56;;;;;;;6.18;3.03;;;;;;;;;;5033652;28;20049;-74
2022/08/31 04:36:24;;;;;;;5.37;3.10;;;;;;;;;;5033128;28;20421;-74
2022/08/31 04:38:52;;;;;;;4.10;2.13;;;;;;;;;;5033568;28;20092;-74
2022/08/31 04:41:20;;;;;;;3.58;2.80;;;;;;;;;;5033380;28;20505;-74
2022/08/31 04:43:48;;;;;;;4.82;2.45;;;;;;;;;;5032320;28;20103;-74
2022/08/31 04:46:14;;;;;;;4.53;2.47;;;;;;;;;;5033335;28;20080;-74
2022/08/31 04:48:41;;;;;;;4.07;2.60;;;;;;;;;;5033596;28;20099;-74
2022/08/31 04:51:13;;;;;;;4.57;2.57;;;;;;;;;;5033210;28;20311;-74
2022/08/31 04:53:40;;;;;;;3.65;2.45;;;;;;;;;;5033142;28;20125;-74
2022/08/31 04:56:13;;;;;;;3.90;2.83;;;;;;;;;;5033305;28;20081;-74
2022/08/31 04:58:40;;;;;;;6.72;2.47;;;;;;;;;;5033458;28;20041;-74
2022/08/31 05:01:08;;;;;;;7.47;2.90;;;;;;;;;;5033201;28;20094;-74
2022/08/31 05:03:34;;;;;;;;;;;;;;;;;;5033634;28;20401;-74
2022/08/31 05:06:01;;;;;;;5.50;2.63;;;;;;;;;;5032789;28;19948;-74
2022/08/31 05:08:27;;;;;;;4.93;2.50;;;;;;;;;;5032841;28;20041;-74
2022/08/31 05:10:54;;;;;;;4.72;2.30;;;;;;;;;;5032828;28;20455;-74
2022/08/31 05:13:20;;;;;;;4.03;2.70;;;;;;;;;;5033005;28;20049;-74
2022/08/31 05:15:47;;;;;;;3.92;2.53;;;;;;;;;;5032749;28;20084;-74
2022/08/31 05:18:20;;;;;;;4.50;2.55;;;;;;;;;;5032957;28;20072;-74
2022/08/31 05:20:47;;;;;;;4.90;2.70;;;;;;;;;;5032888;28;20084;-74
2022/08/31 05:23:13;;;;;;;3.75;2.83;;;;;;;;;;5032397;28;20558;-73
2022/08/31 05:25:40;;;;;;;5.95;2.50;;;;;;;;;;5032508;28;20049;-73
2022/08/31 05:28:06;;;;;;;4.50;2.90;;;;;;;;;;5032684;28;20049;-74
2022/08/31 05:30:33;;;;;;;3.90;2.40;;;;;;;;;;5032238;28;20049;-74
2022/08/31 05:32:59;;;;;;;3.38;2.22;;;;;;;;;;5032491;28;20125;-74
2022/08/31 05:35:26;;;;;;;4.35;2.47;;;;;;;;;;5031169;28;20103;-74
2022/08/31 05:37:53;;;;;;;4.65;2.25;;;;;;;;;;5032009;28;20053;-74
2022/08/31 05:40:19;;;;;;;4.68;2.40;;;;;;;;;;5031772;28;20095;-74
2022/08/31 05:42:46;;;;;;;4.60;2.38;;;;;;;;;;5032287;28;20085;-74
2022/08/31 05:45:12;;;;;;;3.40;2.22;;;;;;;;;;5031875;28;20497;-74
2022/08/31 05:47:39;;;;;;;4.43;2.33;;;;;;;;;;5030405;28;20076;-74
2022/08/31 05:50:05;;;;;;;3.50;2.70;;;;;;;;;;5031404;28;20045;-74
2022/08/31 05:52:33;;;;;;;3.53;2.80;;;;;;;;;;5032021;28;20045;-74
2022/08/31 05:55:00;;;;;;;5.80;2.30;;;;;;;;;;5032003;28;20494;-74
2022/08/31 05:57:26;;;;;;;4.45;2.33;;;;;;;;;;5031699;28;20394;-74
2022/08/31 05:59:53;;;;;;;5.82;2.70;;;;;;;;;;5031806;28;20566;-73
2022/08/31 06:02:19;;;;;;;3.45;2.70;;;;;;;;;;5031482;28;20476;-71
2022/08/31 06:04:46;;;;;;;6.05;2.35;;;;;;;;;;5027864;28;20100;-75
2022/08/31 06:07:17;;;;;;;6.05;2.60;;;;;;;;;;5029487;28;20133;-74
2022/08/31 06:09:43;;;;;;;4.22;2.40;;;;;;;;;;5031113;28;20638;-73
2022/08/31 06:12:10;;;;;;;6.32;2.95;;;;;;;;;;5031806;28;20045;-77
2022/08/31 06:14:36;;;;;;;5.65;2.42;;;;;;;;;;5031930;28;20077;-72
2022/08/31 06:17:04;;;;;;;4.03;1.98;;;;;;;;;;5030212;28;20053;-78
2022/08/31 06:19:31;;;;;;;3.35;2.40;;;;;;;;;;5030908;28;20080;-74
2022/08/31 06:21:57;;;;;;;4.07;2.13;;;;;;;;;;5031293;28;20091;-76
2022/08/31 06:24:24;;;;;;;3.17;2.25;;;;;;;;;;5031281;28;20081;-77
2022/08/31 06:26:54;;;;;;;4.40;2.63;;;;;;;;;;5031562;28;20084;-77
2022/08/31 06:29:25;;;;;;;4.82;2.40;;;;;;;;;;5031512;28;20451;-75
2022/08/31 06:31:51;;;;;;;4.70;2.90;;;;;;;;;;5031490;28;20517;-76
2022/08/31 06:34:18;;;;;;;4.75;2.53;;;;;;;;;;5031440;28;20045;-75
2022/08/31 06:36:47;;;;;;;2.73;2.50;;;;;;;;;;5031317;28;20073;-77
2022/08/31 06:39:13;;;;;;;5.47;2.53;;;;;;;;;;5031168;28;20076;-74
2022/08/31 06:41:40;;;;;;;2.83;2.53;;;;;;;;;;5031119;28;20053;-75
2022/08/31 06:44:09;;;;;;;5.95;2.83;;;;;;;;;;5030942;28;20096;-73
2022/08/31 06:46:37;;;;;;;3.65;2.55;;;;;;;;;;5031051;28;20090;-73
2022/08/31 06:49:04;;;;;;;4.38;2.67;;;;;;;;;;5031388;28;20053;-74
2022/08/31 06:51:36;;;;;;;3.60;2.60;;;;;;;;;;5031117;28;20052;-74
2022/08/31 06:54:04;;;;;;;4.40;2.60;;;;;;;;;;5030873;28;20077;-72
2022/08/31 06:56:50;;;;;;;7.90;2.85;;;;;;;;;;5029819;28;20145;-74
2022/08/31 06:59:17;;;;;;;7.97;3.30;;;;;;;;;;5030949;28;20049;-75
2022/08/31 07:01:43;;;;;;;4.25;2.25;;;;;;;;;;5035123;28;20096;-74
2022/08/31 07:04:10;;;;;;;5.30;2.67;;;;;;;;;;5032197;28;20053;-70
2022/08/31 07:06:38;;;;;;;4.28;3.00;;;;;;;;;;5033465;28;20225;-71
2022/08/31 07:09:06;;;;;;;5.05;2.30;;;;;;;;;;5034849;28;20053;-71
2022/08/31 07:11:32;;;;;;;;;;;;;;;;;;5024690;28;20509;-70
2022/08/31 07:14:00;;;;;;;4.60;2.50;;;;;;;;;;5034759;28;19959;-71
2022/08/31 07:16:26;;;;;;;;;;;;;;;;;;5034875;28;20497;-70
2022/08/31 07:18:53;;;;;;;7.85;2.80;;;;;;;;;;5034560;28;19968;-70
2022/08/31 07:21:31;;;;;;;4.55;2.80;;;;;;;;;;5031191;28;20525;-70
2022/08/31 07:23:59;;;;;;;5.15;2.17;;;;;;;;;;5034193;28;20421;-70
2022/08/31 07:26:28;;;;;;;5.07;2.22;;;;;;;;;;5034316;28;20053;-70
2022/08/31 07:28:59;;;;;;;3.38;2.30;;;;;;;;;;5034130;28;20486;-70
2022/08/31 07:31:25;;;;;;;;;;;;;;;;;;5034579;28;20501;-71
2022/08/31 07:33:54;;;;;;;2.83;1.90;;;;;;;;;;5034672;28;19929;-71
2022/08/31 07:36:22;;;;;;;2.72;1.80;;;;;;;;;;5034091;28;20042;-71
2022/08/31 07:44:19;;;;;;;3.25;1.90;;;;;;;;;;5033876;28;20498;-72
2022/08/31 07:46:46;;;;;;;4.90;2.03;;;;;;;;;;5033799;28;20080;-72
2022/08/31 07:49:15;;;;;;;5.95;2.40;;;;;;;;;;5033696;28;20053;-72
2022/08/31 07:51:49;;;;;;;4.10;2.20;;;;;;;;;;5033761;28;20053;-72
2022/08/31 07:54:26;;;;;;;4.57;1.90;;;;;;;;;;5034090;28;20049;-72
2022/08/31 07:56:59;;;;;;;3.78;2.05;;;;;;;;;;5032539;28;20444;-73
2022/08/31 07:59:26;;;;;;;4.07;2.05;;;;;;;;;;5033564;28;20107;-73
2022/08/31 08:01:54;;;;;;;5.07;2.20;;;;;;;;;;5032041;28;20555;-73
2022/08/31 08:04:24;;;;;;;3.25;2.42;;;;;;;;;;5033789;28;20051;-72
2022/08/31 08:06:54;;;;;;;3.15;2.13;;;;;;;;;;5033794;28;20041;-72
2022/08/31 08:09:22;;;;;;;8.30;2.38;;;;;;;;;;5033310;28;20045;-75
2022/08/31 08:11:56;;;;;;;4.40;1.92;;;;;;;;;;5032265;28;20049;-73
2022/08/31 08:14:27;;;;;;;4.18;1.98;;;;;;;;;;5031381;28;20051;-74
2022/08/31 08:16:55;;;;;;;3.25;1.98;;;;;;;;;;5033311;28;20059;-72
2022/08/31 08:19:22;;;;;;;5.25;2.00;;;;;;;;;;5031606;28;20096;-71
2022/08/31 08:21:48;;;;;;;3.50;2.22;;;;;;;;;;5031917;28;20498;-71
2022/08/31 08:24:16;;;;;;;3.92;1.58;;;;;;;;;;5032892;28;20421;-70
2022/08/31 08:26:44;;;;;;;3.53;1.90;;;;;;;;;;5033307;28;20131;-71
2022/08/31 08:29:11;;;;;;;4.43;1.90;;;;;;;;;;5031353;28;20046;-71
2022/08/31 08:31:37;;;;;;;4.30;2.30;;;;;;;;;;5033015;28;20544;-72
2022/08/31 08:34:05;;;;;;;4.53;1.90;;;;;;;;;;5033003;28;20045;-72
2022/08/31 08:36:34;;;;;;;;;;;;;;;;;;5033579;28;20050;-73
2022/08/31 08:39:02;;;;;;;4.28;1.98;;;;;;;;;;5031381;28;19980;-73
2022/08/31 08:41:30;;;;;;;3.22;1.60;;;;;;;;;;5029330;28;20049;-73
2022/08/31 08:43:59;;;;;;;5.85;1.75;;;;;;;;;;5031514;28;20099;-73
2022/08/31 08:46:26;;;;;;;4.45;2.00;;;;;;;;;;5031632;28;20498;-73
2022/08/31 08:49:04;;;;;;;4.50;2.00;;;;;;;;;;5033042;28;20127;-73
2022/08/31 08:51:35;;;;;;;5.43;2.08;;;;;;;;;;5033232;28;20504;-73
2022/08/31 08:54:06;;;;;;;4.78;1.67;;;;;;;;;;5032062;28;20041;-73
2022/08/31 08:56:32;;;;;;;4.93;1.60;;;;;;;;;;5033154;28;20497;-72
2022/08/31 08:58:59;;;;;;;5.68;1.52;;;;;;;;;;5033238;28;20457;-72
2022/08/31 09:01:27;;;;;;;7.57;2.00;;;;;;;;;;5033291;28;20501;-73
2022/08/31 09:04:01;;;;;;;3.45;1.70;;;;;;;;;;5032793;28;20119;-73
2022/08/31 09:06:35;;;;;;;2.83;1.45;;;;;;;;;;5033578;28;20092;-71
2022/08/31 09:09:31;;;;;;;3.92;1.40;;;;;;;;;;5032782;28;20057;-71
2022/08/31 09:12:07;;;;;;;2.22;1.10;;;;;;;;;;5033132;28;20050;-71
2022/08/31 09:14:58;;;;;;;4.25;1.50;;;;;;;;;;5033114;28;20405;-71
2022/08/31 09:17:25;;;;;;;3.33;1.30;;;;;;;;;;5032644;28;20060;-73
2022/08/31 09:19:58;;;;;;;3.58;1.52;;;;;;;;;;5032795;28;20089;-73
2022/08/31 09:22:31;;;;;;;3.10;1.50;;;;;;;;;;5032449;28;20057;-73
2022/08/31 09:24:58;;;;;;;3.10;1.40;;;;;;;;;;5033275;28;20068;-71
2022/08/31 09:27:45;;;;;;;3.25;1.60;;;;;;;;;;5032666;28;20099;-71
2022/08/31 09:30:31;;;;;;;3.33;1.45;;;;;;;;;;5032500;28;20053;-70
2022/08/31 09:32:57;;;;;;;3.70;1.20;;;;;;;;;;5032452;28;20091;-72
2022/08/31 09:35:28;;;;;;;4.72;1.30;;;;;;;;;;5032577;28;20148;-70
2022/08/31 09:38:02;;;;;;;2.05;1.00;;;;;;;;;;5032268;28;20394;-70
2022/08/31 09:40:41;;;;;;;3.00;1.10;;;;;;;;;;5032244;28;20115;-72
2022/08/31 09:43:12;;;;;;;4.53;1.30;;;;;;;;;;5032342;28;20053;-71
2022/08/31 09:45:49;;;;;;;3.22;1.05;;;;;;;;;;5030801;28;20525;-71
2022/08/31 09:48:35;;;;;;;3.03;1.02;;;;;;;;;;5032072;28;20558;-72
2022/08/31 09:51:03;;;;;;;2.83;1.40;;;;;;;;;;5030956;28;20188;-71
2022/08/31 09:56:22;;;;;;;4.18;1.00;;;;;;;;;;5018122;28;20528;-70
2022/08/31 09:59:03;;;;;;;4.47;1.23;;;;;;;;;;5031571;28;20489;-70
2022/08/31 10:01:42;;;;;;;3.92;1.40;;;;;;;;;;5031499;28;20085;-69
2022/08/31 10:04:22;;;;;;;3.85;1.38;;;;;;;;;;5031608;28;20132;-68
2022/08/31 10:06:54;;;;;;;2.67;1.23;;;;;;;;;;5031373;28;20057;-67
2022/08/31 10:09:35;;;;;;;3.28;1.10;;;;;;;;;;5031345;28;20131;-67
2022/08/31 10:12:08;;;;;;;1.88;1.20;;;;;;;;;;5029524;28;20045;-67
2022/08/31 10:14:39;;;;;;;2.15;1.00;;;;;;;;;;5031306;28;20451;-67
2022/08/31 10:17:15;;;;;;;3.40;1.25;;;;;;;;;;5030857;28;20038;-66
2022/08/31 10:19:52;;;;;;;4.38;1.08;;;;;;;;;;5031295;28;20080;-67
2022/08/31 10:22:27;;;;;;;4.43;1.10;;;;;;;;;;5030925;28;20057;-67
2022/08/31 10:25:10;;;;;;;2.45;1.20;;;;;;;;;;5031154;28;20079;-67
2022/08/31 10:27:47;;;;;;;2.53;0.70;;;;;;;;;;5030988;28;20624;-67
2022/08/31 10:30:20;;;;;;;5.35;1.33;;;;;;;;;;5031196;28;20099;-67
2022/08/31 10:32:49;;;;;;;1.70;0.85;;;;;;;;;;5031085;28;20050;-68
2022/08/31 10:35:42;;;;;;;5.05;1.00;;;;;;;;;;5034352;28;20079;-67
2022/08/31 10:38:25;;;;;;;4.18;0.93;;;;;;;;;;5037194;28;20085;-68
2022/08/31 10:41:12;;;;;;;3.28;1.05;;;;;;;;;;5037933;28;20081;-68
2022/08/31 10:43:52;;;;;;;1.40;0.82;;;;;;;;;;5024478;28;20882;-68
2022/08/31 10:46:19;;;;;;;3.08;0.90;;;;;;;;;;5036189;28;20061;-68
2022/08/31 10:48:45;;;;;;;2.58;0.80;;;;;;;;;;5038072;28;20052;-68
2022/08/31 10:51:21;;;;;;;3.58;0.90;;;;;;;;;;5037771;28;20048;-68
2022/08/31 10:54:05;;;;;;;2.35;0.85;;;;;;;;;;5037756;28;20437;-67
2022/08/31 10:56:38;;;;;;;2.97;1.00;;;;;;;;;;5037355;28;20566;-68
2022/08/31 10:59:28;;;;;;;3.33;0.85;;;;;;;;;;5037099;28;20099;-68
2022/08/31 11:01:59;;;;;;;2.38;1.00;;;;;;;;;;5036379;28;20111;-67
2022/08/31 11:04:33;;;;;;;3.83;1.00;;;;;;;;;;5037024;28;20073;-68
2022/08/31 11:07:12;;;;;;;1.25;0.60;;;;;;;;;;5036993;28;20056;-68
2022/08/31 11:09:48;;;;;;;2.17;0.95;;;;;;;;;;5034179;28;20478;-68
2022/08/31 11:12:20;;;;;;;3.92;0.80;;;;;;;;;;5035074;28;20072;-67
2022/08/31 11:15:08;;;;;;;2.42;0.93;;;;;;;;;;5037297;28;20092;-67
2022/08/31 11:17:38;;;;;;;2.75;1.17;;;;;;;;;;5036710;28;20057;-68
2022/08/31 11:20:23;;;;;;;1.75;0.80;;;;;;;;;;5037122;28;20572;-69
2022/08/31 11:22:52;;;;;;;2.35;0.68;;;;;;;;;;5037343;28;20440;-69
2022/08/31 11:25:19;;;;;;;3.53;0.90;;;;;;;;;;5037112;28;20042;-69
2022/08/31 11:27:49;;;;;;;3.05;0.80;;;;;;;;;;5037214;28;20079;-69
2022/08/31 11:30:26;;;;;;;3.05;0.80;;;;;;;;;;5036656;28;20099;-69
2022/08/31 11:32:55;;;;;;;3.78;0.77;;;;;;;;;;5037263;28;20095;-69
2022/08/31 11:35:40;;;;;;;3.05;0.90;;;;;;;;;;5037073;28;20599;-67
2022/08/31 11:38:28;;;;;;;2.67;0.75;;;;;;;;;;5037100;28;20550;-68
2022/08/31 11:40:55;;;;;;;3.30;1.00;;;;;;;;;;5036854;28;20493;-68
2022/08/31 11:43:30;;;;;;;3.25;0.93;;;;;;;;;;5037307;28;20099;-69
2022/08/31 11:46:00;;;;;;;3.03;0.90;;;;;;;;;;5036618;28;20072;-69
2022/08/31 11:48:47;;;;;;;2.60;0.80;;;;;;;;;;5034393;28;20135;-68
2022/08/31 11:51:26;;;;;;;2.58;0.90;;;;;;;;;;5032437;28;20046;-68
2022/08/31 11:53:54;;;;;;;3.13;0.77;;;;;;;;;;5033709;28;20457;-68
2022/08/31 11:56:34;;;;;;;2.47;0.90;;;;;;;;;;5033232;28;20077;-68
2022/08/31 11:59:19;;;;;;;2.47;0.95;;;;;;;;;;5033287;28;20135;-69
2022/08/31 12:01:46;;;;;;;4.03;0.80;;;;;;;;;;5033146;28;20087;-68
2022/08/31 12:04:31;;;;;;;3.03;0.80;;;;;;;;;;5033171;28;20088;-69
2022/08/31 12:07:00;;;;;;;1.45;0.80;;;;;;;;;;5033397;28;20053;-68
2022/08/31 12:09:36;;;;;;;2.05;0.93;;;;;;;;;;5032320;28;20482;-68
2022/08/31 12:12:28;;;;;;;1.80;0.70;;;;;;;;;;5030461;28;20073;-68
2022/08/31 12:15:02;;;;;;;4.88;0.90;;;;;;;;;;5033085;28;20072;-69
2022/08/31 12:17:34;;;;;;;4.70;0.75;;;;;;;;;;5020732;28;20068;-68
2022/08/31 12:20:03;;;;;;;2.47;0.70;;;;;;;;;;5033248;28;20107;-68
2022/08/31 12:25:27;;;;;;;5.10;0.90;;;;;;;;;;5033517;28;20095;-68
2022/08/31 12:27:56;;;;;;;2.13;0.98;;;;;;;;;;5032228;28;20084;-68
2022/08/31 12:30:24;;;;;;;1.42;0.88;;;;;;;;;;5033019;28;20542;-68
2022/08/31 12:33:11;;;;;;;1.58;0.80;;;;;;;;;;5032626;28;20468;-69
2022/08/31 12:35:38;;;;;;;2.90;0.80;;;;;;;;;;5032897;28;20500;-68
2022/08/31 12:38:09;;;;;;;2.50;0.95;;;;;;;;;;5033204;28;20084;-67
2022/08/31 12:40:45;;;;;;;2.05;1.00;;;;;;;;;;5032842;28;20481;-68
2022/08/31 12:43:37;;;;;;;2.22;0.70;;;;;;;;;;5032691;28;20489;-69
2022/08/31 12:46:13;;;;;;;3.22;0.88;;;;;;;;;;5032223;28;20053;-69
2022/08/31 12:48:46;;;;;;;2.70;1.00;;;;;;;;;;5032098;28;20042;-68
2022/08/31 12:51:31;;;;;;;3.25;0.68;;;;;;;;;;5032492;28;20080;-68
2022/08/31 12:54:16;;;;;;;5.88;0.80;;;;;;;;;;5032407;28;20089;-68
2022/08/31 12:56:52;;;;;;;1.27;0.75;;;;;;;;;;5032496;28;20077;-68
2022/08/31 12:59:18;;;;;;;4.40;1.00;;;;;;;;;;5031713;28;20092;-68
2022/08/31 13:01:46;;;;;;;3.80;0.90;;;;;;;;;;5032062;28;20322;-68
2022/08/31 13:04:16;;;;;;;4.65;1.10;;;;;;;;;;5032739;28;20056;-68
2022/08/31 13:06:46;;;;;;;2.53;1.00;;;;;;;;;;5032837;28;20489;-68
2022/08/31 13:09:25;;;;;;;2.45;0.77;;;;;;;;;;5033096;28;20077;-68
2022/08/31 13:11:52;;;;;;;1.80;0.80;;;;;;;;;;5030336;28;20081;-68
2022/08/31 13:14:23;;;;;;;2.67;0.77;;;;;;;;;;5032368;28;20053;-68
2022/08/31 13:17:01;;;;;;;2.60;0.90;;;;;;;;;;5031727;28;20525;-68
2022/08/31 13:19:29;;;;;;;2.75;0.73;;;;;;;;;;5018072;28;20132;-70
2022/08/31 13:21:57;;;;;;;2.30;0.93;;;;;;;;;;5032138;28;20089;-70
2022/08/31 13:24:27;;;;;;;2.20;0.75;;;;;;;;;;5030701;28;20135;-70
2022/08/31 13:27:16;;;;;;;1.10;0.73;;;;;;;;;;5030320;28;20390;-70
2022/08/31 13:29:44;;;;;;;1.02;0.70;;;;;;;;;;5031335;28;20509;-70
2022/08/31 13:32:19;;;;;;;2.28;1.02;;;;;;;;;;5032555;28;20054;-70
2022/08/31 13:34:47;;;;;;;2.10;0.80;;;;;;;;;;5032482;28;20081;-70
2022/08/31 13:37:19;;;;;;;2.22;0.98;;;;;;;;;;5032333;28;20049;-70
2022/08/31 13:39:46;;;;;;;4.05;0.80;;;;;;;;;;5032206;28;20053;-70
2022/08/31 13:42:12;;;;;;;;;;;;;;;;;;5031694;28;20053;-70
2022/08/31 13:44:42;;;;;;;3.22;0.82;;;;;;;;;;5032291;28;19921;-70
2022/08/31 13:47:20;;;;;;;5.07;0.90;;;;;;;;;;5032537;28;20056;-70
2022/08/31 13:49:47;;;;;;;2.53;0.73;;;;;;;;;;5032014;28;20124;-70
2022/08/31 13:52:16;;;;;;;3.85;0.88;;;;;;;;;;5032498;28;20049;-70
2022/08/31 13:54:43;;;;;;;2.13;0.75;;;;;;;;;;5032261;28;20073;-70
2022/08/31 13:57:28;;;;;;;2.03;0.73;;;;;;;;;;5032003;28;20084;-70
2022/08/31 14:00:33;;;;;;;1.88;0.73;;;;;;;;;;5031760;28;20486;-70
2022/08/31 14:03:18;;;;;;;2.83;0.98;;;;;;;;;;5030513;28;20489;-70
2022/08/31 14:05:45;;;;;;;2.10;1.10;;;;;;;;;;5032177;28;20061;-70
2022/08/31 14:08:16;;;;;;;2.08;0.98;;;;;;;;;;5031866;28;20283;-69
2022/08/31 14:10:45;;;;;;;4.68;0.90;;;;;;;;;;5031232;28;20080;-69
2022/08/31 14:13:12;;;;;;;4.93;1.13;;;;;;;;;;5031950;28;20045;-70
2022/08/31 14:15:49;;;;;;;2.30;0.90;;;;;;;;;;5031790;28;20481;-70
2022/08/31 14:18:15;;;;;;;3.50;1.00;;;;;;;;;;5031690;28;20501;-70
2022/08/31 14:21:06;;;;;;;1.27;0.68;;;;;;;;;;5032001;28;20045;-70
2022/08/31 14:23:46;;;;;;;2.85;0.90;;;;;;;;;;5031600;28;20544;-70
2022/08/31 14:26:17;;;;;;;4.97;1.10;;;;;;;;;;5031449;28;20081;-70
2022/08/31 14:28:45;;;;;;;2.50;0.85;;;;;;;;;;5031618;28;20045;-70
2022/08/31 14:31:26;;;;;;;3.45;1.15;;;;;;;;;;5031828;28;20049;-70
2022/08/31 14:34:13;;;;;;;2.20;0.85;;;;;;;;;;5031627;28;20489;-70
2022/08/31 14:36:53;;;;;;;2.70;1.08;;;;;;;;;;5031545;28;20041;-70
2022/08/31 14:39:23;;;;;;;2.83;0.80;;;;;;;;;;5031808;28;20053;-70
2022/08/31 14:41:50;;;;;;;2.97;1.10;;;;;;;;;;5031384;28;20547;-70
2022/08/31 14:44:18;;;;;;;2.42;0.90;;;;;;;;;;5031660;28;20154;-70
2022/08/31 14:46:45;;;;;;;3.63;1.10;;;;;;;;;;5031785;28;20096;-70
2022/08/31 14:49:11;;;;;;;2.95;0.80;;;;;;;;;;5030601;28;20080;-70
2022/08/31 14:51:38;;;;;;;5.45;0.90;;;;;;;;;;5031467;28;20616;-70
2022/08/31 14:54:06;;;;;;;3.03;0.90;;;;;;;;;;5031639;28;20045;-70
2022/08/31 14:56:35;;;;;;;1.15;0.60;;;;;;;;;;5031607;28;20073;-70
2022/08/31 14:59:04;;;;;;;2.03;0.70;;;;;;;;;;5031358;28;20054;-70
2022/08/31 15:01:34;;;;;;;3.25;0.82;;;;;;;;;;5031241;28;20124;-70
2022/08/31 15:04:02;;;;;;;2.45;0.70;;;;;;;;;;5031352;28;20494;-70
2022/08/31 15:06:30;;;;;;;2.20;0.70;;;;;;;;;;5031293;28;20119;-70
2022/08/31 15:08:58;;;;;;;0.70;0.70;;;;;;;;;;5031150;28;20049;-70
2022/08/31 15:11:24;;;;;;;4.10;0.68;;;;;;;;;;5031485;28;20119;-69
2022/08/31 15:13:52;;;;;;;2.08;0.80;;;;;;;;;;5031220;28;20041;-69
2022/08/31 15:16:18;;;;;;;2.35;0.70;;;;;;;;;;5029955;28;20497;-69
2022/08/31 15:18:45;;;;;;;2.60;0.90;;;;;;;;;;5027533;28;20482;-69
2022/08/31 15:21:11;;;;;;;1.75;0.55;;;;;;;;;;5031328;28;20166;-69